Time;durP1;ratioP1;P1;durP2;ratioP2;P2;SDS_P1;SDS_P2;PMS_P1;PMS_P2;Temp;Humidity;BMP_temperature;BMP_pressure;BME280_temperature;BME280_humidity;BME280_pressure;Samples;Min_cycle;Max_cycle;Signal;HPM_P1;HPM_P2
2022/04/03 00:01:17;;;;;;;10.73;9.67;;;;;;;1.58;90.80;95182.41;4323935;32;20204;-63
2022/04/03 00:03:43;;;;;;;11.32;10.32;;;;;;;1.60;90.71;95173.31;4334214;32;20189;-64
2022/04/03 00:06:12;;;;;;;10.60;9.70;;;;;;;1.76;90.22;95183.97;4346534;32;20215;-63
2022/04/03 00:08:40;;;;;;;11.65;10.75;;;;;;;1.63;89.67;95182.50;4336264;32;20193;-63
2022/04/03 00:11:15;;;;;;;11.07;10.15;;;;;;;1.27;91.81;95181.94;4355721;32;20236;-63
2022/04/03 00:13:41;;;;;;;11.50;10.50;;;;;;;1.32;91.42;95189.09;4360326;32;20306;-64
2022/04/03 00:16:14;;;;;;;11.30;10.40;;;;;;;1.23;91.90;95188.69;4343817;32;20189;-63
2022/04/03 00:18:41;;;;;;;10.48;9.57;;;;;;;1.41;91.83;95181.66;4320225;32;20197;-63
2022/04/03 00:21:18;;;;;;;10.98;10.02;;;;;;;1.44;91.28;95181.16;4322441;32;20203;-64
2022/04/03 00:23:43;;;;;;;10.20;9.30;;;;;;;1.54;90.83;95184.72;4342444;32;20196;-63
2022/04/03 00:26:16;;;;;;;10.23;9.33;;;;;;;1.55;89.47;95190.72;4348264;32;20249;-64
2022/04/03 00:29:05;;;;;;;9.93;9.13;;;;;;;1.46;90.06;95189.53;4347950;32;20301;-63
2022/04/03 00:31:34;;;;;;;9.80;9.00;;;;;;;1.38;89.82;95195.97;4331735;32;20186;-63
2022/04/03 00:34:01;;;;;;;10.63;9.73;;;;;;;1.27;90.09;95191.59;4317973;32;20181;-64
2022/04/03 00:36:28;;;;;;;10.40;9.60;;;;;;;1.14;90.65;95195.34;4339649;32;20236;-63
2022/04/03 00:38:54;;;;;;;9.63;8.82;;;;;;;1.26;90.71;95200.47;4337882;32;20197;-64
2022/04/03 00:41:22;;;;;;;10.00;9.10;;;;;;;1.24;90.65;95192.91;4327709;32;20193;-63
2022/04/03 00:43:49;;;;;;;10.25;9.35;;;;;;;1.20;91.08;95207.47;4317845;32;20204;-63
2022/04/03 00:46:19;;;;;;;9.98;9.10;;;;;;;1.18;90.82;95199.06;4332616;32;20272;-64
2022/04/03 00:48:48;;;;;;;9.68;8.88;;;;;;;0.99;91.26;95200.31;4318515;32;20220;-64
2022/04/03 00:51:15;;;;;;;9.07;8.35;;;;;;;1.31;90.67;95197.94;4306403;32;20186;-63
2022/04/03 00:53:41;;;;;;;9.73;8.85;;;;;;;1.37;90.12;95197.78;4340861;32;20190;-63
2022/04/03 00:56:15;;;;;;;9.63;8.82;;;;;;;1.25;90.93;95197.06;4331814;32;20181;-64
2022/04/03 00:58:42;;;;;;;9.45;8.65;;;;;;;1.61;90.15;95201.03;4332018;32;20257;-64
2022/04/03 01:01:20;;;;;;;8.98;8.27;;;;;;;1.49;90.44;95199.53;4349540;32;20185;-64
2022/04/03 01:03:50;;;;;;;9.75;9.02;;;;;;;1.59;90.01;95200.47;4340162;32;20189;-64
2022/04/03 01:06:18;;;;;;;10.15;9.32;;;;;;;1.62;89.79;95196.59;4337042;32;20275;-63
2022/04/03 01:08:45;;;;;;;9.15;8.48;;;;;;;1.67;89.93;95194.81;4337380;32;20204;-64
2022/04/03 01:11:20;;;;;;;11.20;10.30;;;;;;;1.64;89.31;95197.94;4361399;32;20181;-63
2022/04/03 01:13:48;;;;;;;10.57;9.77;;;;;;;1.77;88.48;95196.78;4330649;32;20185;-64
2022/04/03 01:16:13;;;;;;;12.25;11.25;;;;;;;1.88;88.01;95197.69;4344371;32;20181;-63
2022/04/03 01:18:44;;;;;;;11.97;10.87;;;;;;;1.73;88.98;95195.69;4347754;32;20232;-63
2022/04/03 01:21:18;;;;;;;11.00;10.10;;;;;;;1.73;89.09;95193.06;4318214;32;20276;-64
2022/04/03 01:23:46;;;;;;;10.88;10.07;;;;;;;1.82;88.02;95198.69;4329684;32;20256;-64
2022/04/03 01:26:19;;;;;;;12.23;11.15;;;;;;;1.64;88.47;95194.53;4321291;32;20192;-63
2022/04/03 01:28:46;;;;;;;11.95;10.98;;;;;;;1.47;88.51;95197.13;4346332;32;20212;-64
2022/04/03 01:31:16;;;;;;;10.90;10.10;;;;;;;1.53;89.17;95198.81;4345180;32;20297;-63
2022/04/03 01:33:41;;;;;;;11.12;10.13;;;;;;;1.48;88.91;95205.78;4342402;32;20280;-65
2022/04/03 01:36:15;;;;;;;11.93;10.93;;;;;;;1.31;89.80;95205.78;4351038;32;20196;-63
2022/04/03 01:38:41;;;;;;;12.15;11.10;;;;;;;1.29;90.24;95203.41;4361802;32;20185;-64
2022/04/03 01:41:17;;;;;;;12.25;11.25;;;;;;;1.46;90.50;95210.44;4339565;32;20239;-64
2022/04/03 01:43:43;;;;;;;12.23;11.23;;;;;;;1.71;88.91;95202.97;4330844;32;20197;-64
2022/04/03 01:46:16;;;;;;;12.05;11.00;;;;;;;1.63;88.39;95208.63;4351522;32;20211;-64
2022/04/03 01:48:42;;;;;;;12.70;11.68;;;;;;;1.30;89.87;95212.84;4350529;32;20265;-64
2022/04/03 01:51:15;;;;;;;14.05;12.77;;;;;;;1.44;89.68;95205.47;4356449;32;20234;-64
2022/04/03 01:53:43;;;;;;;12.43;11.43;;;;;;;1.42;89.88;95206.75;4345854;32;20188;-64
2022/04/03 01:56:20;;;;;;;12.82;11.68;;;;;;;1.65;88.85;95217.03;4332765;32;20192;-64
2022/04/03 01:58:47;;;;;;;13.52;12.37;;;;;;;1.56;89.61;95215.84;4318953;32;20252;-64
2022/04/03 02:01:17;;;;;;;13.38;12.07;;;;;;;1.46;89.11;95218.28;4358607;32;20193;-64
2022/04/03 02:03:43;;;;;;;14.30;13.02;;;;;;;1.54;89.66;95212.66;4361221;32;20211;-63
2022/04/03 02:06:17;;;;;;;12.57;11.55;;;;;;;1.41;89.58;95223.44;4341026;32;20260;-64
2022/04/03 02:08:43;;;;;;;13.48;12.27;;;;;;;1.59;89.19;95221.37;4317740;32;20244;-65
2022/04/03 02:11:15;;;;;;;13.47;12.27;;;;;;;1.42;88.92;95217.19;4329601;32;20185;-64
2022/04/03 02:13:42;;;;;;;12.68;11.57;;;;;;;1.36;89.87;95221.53;4319598;32;20297;-63
2022/04/03 02:16:23;;;;;;;13.48;12.20;;;;;;;1.35;90.36;95219.97;4301912;33;20190;-63
2022/04/03 02:18:50;;;;;;;13.62;12.45;;;;;;;1.60;89.46;95219.56;4337054;32;20260;-64
2022/04/03 02:21:17;;;;;;;13.55;12.35;;;;;;;1.27;90.53;95217.72;4341985;32;20201;-64
2022/04/03 02:23:44;;;;;;;13.23;12.02;;;;;;;1.21;91.26;95223.94;4355663;32;20265;-64
2022/04/03 02:26:19;;;;;;;14.15;12.75;;;;;;;1.38;91.44;95220.28;4338980;32;20185;-64
2022/04/03 02:28:46;;;;;;;13.85;12.65;;;;;;;1.38;90.32;95224.72;4326563;32;20253;-64
2022/04/03 02:31:16;;;;;;;14.05;12.77;;;;;;;1.43;89.93;95221.41;4347497;32;20315;-64
2022/04/03 02:33:41;;;;;;;13.50;12.27;;;;;;;1.46;89.52;95231.34;4360808;32;20260;-64
2022/04/03 02:36:16;;;;;;;14.07;12.77;;;;;;;1.43;89.32;95226.62;4347704;32;20249;-64
2022/04/03 02:38:44;;;;;;;15.15;13.75;;;;;;;1.29;89.68;95229.53;4330268;32;20258;-64
2022/04/03 02:41:21;;;;;;;15.20;13.80;;;;;;;1.28;90.10;95235.78;4331817;32;20200;-64
2022/04/03 02:43:49;;;;;;;15.00;13.65;;;;;;;1.12;90.90;95226.12;4333655;32;20244;-64
2022/04/03 02:46:16;;;;;;;14.57;13.18;;;;;;;1.27;90.97;95238.63;4346487;32;20311;-64
2022/04/03 02:48:44;;;;;;;15.15;13.82;;;;;;;1.30;91.20;95238.97;4329936;32;20271;-64
2022/04/03 02:51:10;;;;;;;15.32;13.82;;;;;;;1.37;89.56;95234.38;4353656;32;20207;-64
2022/04/03 02:53:36;;;;;;;15.53;13.97;;;;;;;1.22;90.33;95234.12;4307809;32;20208;-64
2022/04/03 02:56:22;;;;;;;14.85;13.45;;;;;;;1.28;90.85;95232.38;4346048;32;20245;-64
2022/04/03 02:58:49;;;;;;;14.80;13.40;;;;;;;1.37;90.20;95237.00;4337876;32;20190;-64
2022/04/03 03:01:15;;;;;;;14.02;12.73;;;;;;;1.46;89.76;95239.19;4329192;32;20235;-64
2022/04/03 03:03:42;;;;;;;13.57;12.33;;;;;;;1.51;89.61;95245.28;4342974;32;20323;-64
2022/04/03 03:06:11;;;;;;;14.65;13.25;;;;;;;1.56;89.05;95248.00;4361321;32;20242;-64
2022/04/03 03:08:38;;;;;;;14.60;13.20;;;;;;;1.55;89.05;95245.63;4361114;32;20224;-64
2022/04/03 03:11:13;;;;;;;12.77;11.68;;;;;;;1.38;89.40;95245.63;4349425;32;20189;-63
2022/04/03 03:13:40;;;;;;;13.75;12.45;;;;;;;1.57;88.18;95244.34;4339537;32;20234;-63
2022/04/03 03:16:13;;;;;;;13.13;12.02;;;;;;;1.52;88.28;95246.88;4336629;32;20203;-63
2022/04/03 03:18:40;;;;;;;14.63;13.10;;;;;;;1.56;87.54;95244.59;4339694;32;20209;-63
2022/04/03 03:21:08;;;;;;;13.27;12.13;;;;;;;1.25;88.31;95244.09;4340346;32;20189;-63
2022/04/03 03:23:35;;;;;;;13.98;12.68;;;;;;;1.47;88.27;95251.22;4364765;32;20204;-63
2022/04/03 03:26:01;;;;;;;13.32;12.18;;;;;;;1.43;88.06;95250.94;4353239;32;20270;-63
2022/04/03 03:28:27;;;;;;;13.13;11.93;;;;;;;1.22;88.05;95257.66;4316106;32;20248;-64
2022/04/03 03:30:53;;;;;;;12.33;11.33;;;;;;;1.40;88.32;95259.25;4357105;32;20225;-63
2022/04/03 03:33:20;;;;;;;13.13;11.95;;;;;;;1.29;88.47;95252.25;4341157;32;20240;-63
2022/04/03 03:35:45;;;;;;;13.27;12.18;;;;;;;1.57;87.43;95254.81;4356550;32;20185;-63
2022/04/03 03:38:12;;;;;;;13.60;12.30;;;;;;;1.57;87.35;95254.00;4341998;32;23363;-62
2022/04/03 03:40:44;;;;;;;14.50;13.00;;;;;;;1.49;88.33;95263.03;4359115;32;20217;-62
2022/04/03 03:43:12;;;;;;;13.07;11.88;;;;;;;1.53;88.17;95258.13;4358870;32;20209;-63
2022/04/03 03:45:39;;;;;;;12.60;11.52;;;;;;;1.54;88.08;95270.16;4360684;32;20193;-62
2022/04/03 03:48:08;;;;;;;13.75;12.43;;;;;;;1.44;88.33;95265.59;4344327;32;20224;-64
2022/04/03 03:50:34;;;;;;;13.20;12.05;;;;;;;1.34;88.75;95265.41;4315886;32;20193;-63
2022/04/03 03:53:00;;;;;;;13.30;12.10;;;;;;;1.46;89.17;95257.47;4356715;32;20223;-63
2022/04/03 03:55:27;;;;;;;12.83;11.57;;;;;;;1.50;89.17;95269.06;4356519;32;20512;-63
2022/04/03 03:57:53;;;;;;;12.95;11.85;;;;;;;1.51;89.49;95273.25;4319830;32;20197;-63
2022/04/03 04:00:18;;;;;;;13.93;12.63;;;;;;;1.54;89.26;95276.19;4341901;32;20203;-63
2022/04/03 04:02:45;;;;;;;12.53;11.43;;;;;;;1.61;89.43;95282.06;4346750;32;20332;-63
2022/04/03 04:05:11;;;;;;;12.95;11.93;;;;;;;1.43;88.77;95282.28;4327262;32;20250;-64
2022/04/03 04:07:42;;;;;;;13.07;11.60;;;;;;;1.33;88.31;95284.72;4337452;32;20248;-63
2022/04/03 04:10:08;;;;;;;13.30;12.10;;;;;;;1.23;89.52;95282.75;4322744;32;20268;-63
2022/04/03 04:12:35;;;;;;;14.05;11.80;;;;;;;1.40;89.43;95292.44;4317158;32;20249;-62
2022/04/03 04:15:04;;;;;;;12.48;11.45;;;;;;;1.52;87.97;95283.47;4320598;32;20250;-62
2022/04/03 04:17:35;;;;;;;12.85;11.65;;;;;;;1.47;88.43;95283.37;4346666;32;20189;-62
2022/04/03 04:20:18;;;;;;;12.77;11.68;;;;;;;1.49;88.79;95294.41;4328944;32;20209;-63
2022/04/03 04:22:48;;;;;;;14.10;12.80;;;;;;;1.60;88.43;95288.31;4316266;32;20208;-63
2022/04/03 04:25:16;;;;;;;13.70;12.40;;;;;;;1.48;88.21;95290.19;4334113;32;20189;-64
2022/04/03 04:27:47;;;;;;;14.20;12.85;;;;;;;1.25;89.42;95290.31;4333850;32;20299;-63
2022/04/03 04:30:15;;;;;;;13.65;12.27;;;;;;;1.41;89.36;95292.19;4342551;32;20267;-63
2022/04/03 04:32:45;;;;;;;13.50;12.40;;;;;;;1.40;88.81;95287.19;4318954;32;20300;-63
2022/04/03 04:35:13;;;;;;;13.30;12.10;;;;;;;1.45;88.72;95302.97;4309133;32;20211;-63
2022/04/03 04:37:41;;;;;;;13.45;12.25;;;;;;;1.49;88.36;95304.06;4292274;32;20208;-63
2022/04/03 04:40:07;;;;;;;14.25;12.95;;;;;;;1.61;88.50;95295.12;4327054;33;20197;-63
2022/04/03 04:42:34;;;;;;;14.87;13.57;;;;;;;1.59;89.17;95301.62;4350894;32;20218;-63
2022/04/03 04:45:03;;;;;;;13.73;12.37;;;;;;;1.65;88.81;95300.69;4351486;32;20185;-62
2022/04/03 04:47:34;;;;;;;14.40;13.18;;;;;;;1.52;89.59;95303.59;4319392;33;20185;-64
2022/04/03 04:50:01;;;;;;;14.05;12.75;;;;;;;1.58;89.33;95307.88;4354459;32;20189;-63
2022/04/03 04:52:32;;;;;;;12.95;11.85;;;;;;;1.76;88.00;95305.03;4358244;32;20193;-63
2022/04/03 04:54:58;;;;;;;13.68;12.48;;;;;;;1.70;87.66;95305.97;4357995;32;20244;-63
2022/04/03 04:57:25;;;;;;;12.60;11.38;;;;;;;1.76;87.05;95315.47;4349339;32;20251;-63
2022/04/03 04:59:51;;;;;;;14.40;12.82;;;;;;;1.84;85.69;95315.09;4367068;32;20189;-64
2022/04/03 05:02:17;;;;;;;14.47;13.13;;;;;;;1.76;86.28;95315.47;4362590;32;20211;-63
2022/04/03 05:04:42;;;;;;;13.25;12.10;;;;;;;1.91;85.21;95315.72;4360438;32;20229;-63
2022/04/03 05:07:13;;;;;;;14.07;12.77;;;;;;;1.88;85.76;95316.19;4341789;32;20189;-63
2022/04/03 05:09:39;;;;;;;14.93;13.30;;;;;;;1.63;86.52;95323.66;4295560;33;20232;-63
2022/04/03 05:12:06;;;;;;;13.48;12.25;;;;;;;1.69;86.78;95328.69;4327118;32;20186;-63
2022/04/03 05:14:32;;;;;;;14.38;13.07;;;;;;;1.65;86.46;95332.84;4336400;32;20202;-63
2022/04/03 05:16:59;;;;;;;13.67;12.43;;;;;;;1.65;86.29;95329.44;4329308;32;20190;-63
2022/04/03 05:19:29;;;;;;;14.75;13.45;;;;;;;1.39;88.03;95336.06;4340640;32;20188;-62
2022/04/03 05:21:56;;;;;;;15.52;14.02;;;;;;;1.51;86.83;95325.53;4337633;32;20198;-61
2022/04/03 05:24:23;;;;;;;15.30;13.80;;;;;;;1.38;88.12;95329.25;4328908;32;20208;-63
2022/04/03 05:26:50;;;;;;;15.20;13.77;;;;;;;1.38;88.95;95340.50;4323596;32;20197;-63
2022/04/03 05:29:16;;;;;;;15.32;13.93;;;;;;;1.22;88.91;95338.63;4340951;32;20351;-63
2022/04/03 05:31:43;;;;;;;16.77;15.10;;;;;;;1.36;88.49;95341.75;4345575;32;20339;-63
2022/04/03 05:34:10;;;;;;;16.73;15.13;;;;;;;1.27;89.21;95354.38;4323571;32;20351;-63
2022/04/03 05:36:36;;;;;;;14.15;12.77;;;;;;;1.26;89.11;95347.56;4349152;32;20206;-63
2022/04/03 05:39:04;;;;;;;14.03;12.73;;;;;;;1.42;88.11;95350.47;4360725;32;20195;-63
2022/04/03 05:41:30;;;;;;;14.52;13.15;;;;;;;1.31;87.79;95354.72;4361487;32;20176;-63
2022/04/03 05:43:56;;;;;;;14.02;12.70;;;;;;;1.38;87.94;95358.78;4358608;32;20244;-62
2022/04/03 05:46:22;;;;;;;15.10;13.60;;;;;;;1.35;88.25;95354.00;4352225;32;20189;-62
2022/04/03 05:48:47;;;;;;;15.40;13.33;;;;;;;1.43;88.01;95363.31;4362566;32;20189;-63
2022/04/03 05:51:34;;;;;;;15.90;14.30;;;;;;;1.48;87.65;95366.00;4360435;32;20197;-63
2022/04/03 05:53:59;;;;;;;14.65;13.25;;;;;;;1.52;87.39;95369.72;4360805;32;20215;-63
2022/04/03 05:56:27;;;;;;;15.77;14.27;;;;;;;1.45;86.67;95373.53;4361048;32;20185;-62
2022/04/03 05:58:54;;;;;;;14.10;12.80;;;;;;;1.46;87.79;95370.66;4359768;32;20216;-62
2022/04/03 06:01:23;;;;;;;15.63;14.13;;;;;;;1.54;86.71;95379.94;4350169;32;20196;-62
2022/04/03 06:03:48;;;;;;;14.98;13.57;;;;;;;1.30;87.95;95379.25;4350900;32;20199;-63
2022/04/03 06:06:19;;;;;;;14.20;12.80;;;;;;;1.36;87.93;95378.31;4359978;32;20197;-62
2022/04/03 06:08:45;;;;;;;14.25;12.85;;;;;;;1.41;86.84;95369.78;4347918;32;20265;-62
2022/04/03 06:11:19;;;;;;;14.52;12.63;;;;;;;1.43;87.50;95376.38;4346129;32;20204;-63
2022/04/03 06:13:45;;;;;;;14.57;12.25;;;;;;;1.19;87.89;95385.31;4348622;32;20208;-62
2022/04/03 06:16:25;;;;;;;14.33;12.37;;;;;;;1.19;88.23;95388.72;4349372;32;20200;-63
2022/04/03 06:18:52;;;;;;;14.82;13.15;;;;;;;1.26;87.15;95389.37;4362691;32;20180;-63
2022/04/03 06:21:21;;;;;;;13.75;12.37;;;;;;;1.19;88.59;95391.34;4348931;32;20208;-63
2022/04/03 06:23:47;;;;;;;14.35;12.93;;;;;;;1.22;88.16;95397.94;4363295;32;20199;-63
2022/04/03 06:26:24;;;;;;;14.90;13.40;;;;;;;1.47;87.55;95398.37;4361510;32;20189;-63
2022/04/03 06:28:49;;;;;;;12.65;11.45;;;;;;;1.46;87.04;95398.59;4338048;32;20218;-63
2022/04/03 06:31:18;;;;;;;13.00;11.83;;;;;;;1.58;87.04;95396.75;4364380;32;20186;-63
2022/04/03 06:33:43;;;;;;;11.93;10.88;;;;;;;1.72;86.15;95403.25;4347823;32;20208;-63
2022/04/03 06:36:28;;;;;;;12.60;11.40;;;;;;;1.72;86.33;95406.66;4360349;32;20193;-63
2022/04/03 06:38:54;;;;;;;13.07;11.88;;;;;;;1.69;86.27;95396.69;4362541;32;20295;-62
2022/04/03 06:41:19;;;;;;;11.17;10.17;;;;;;;1.68;85.59;95405.53;4378358;32;20187;-63
2022/04/03 06:43:45;;;;;;;11.03;10.03;;;;;;;1.67;84.82;95403.16;4366038;32;20193;-63
2022/04/03 06:46:28;;;;;;;12.07;10.97;;;;;;;1.49;85.07;95416.44;4356311;32;20182;-63
2022/04/03 06:48:54;;;;;;;11.48;10.35;;;;;;;1.38;85.36;95416.25;4349164;32;20182;-63
2022/04/03 06:51:28;;;;;;;11.37;10.37;;;;;;;1.33;86.16;95421.38;4353116;32;20274;-63
2022/04/03 06:53:54;;;;;;;11.73;10.52;;;;;;;1.39;86.54;95424.91;4349614;32;20188;-62
2022/04/03 06:56:28;;;;;;;11.63;10.43;;;;;;;1.36;86.88;95427.97;4358415;32;20260;-63
2022/04/03 06:58:54;;;;;;;11.50;10.48;;;;;;;1.60;85.78;95429.47;4359176;32;20189;-62
2022/04/03 07:01:23;;;;;;;12.10;10.98;;;;;;;1.58;86.33;95433.34;4354917;32;20043;-65
2022/04/03 07:03:50;;;;;;;11.43;10.45;;;;;;;1.56;85.59;95432.78;4346442;32;20211;-63
2022/04/03 07:06:25;;;;;;;12.20;11.02;;;;;;;1.50;84.62;95431.09;4360806;32;20189;-64
2022/04/03 07:08:50;;;;;;;11.50;10.38;;;;;;;1.52;85.75;95442.09;4361011;32;20207;-62
2022/04/03 07:11:24;;;;;;;11.97;10.87;;;;;;;1.47;86.42;95432.34;4360027;32;20191;-65
2022/04/03 07:13:49;;;;;;;11.05;10.10;;;;;;;1.61;85.75;95438.09;4369031;32;20197;-67
2022/04/03 07:16:27;;;;;;;11.73;10.67;;;;;;;1.56;85.16;95443.25;4362388;32;20229;-63
2022/04/03 07:18:52;;;;;;;10.98;10.13;;;;;;;1.68;85.96;95433.50;4356324;32;20215;-68
2022/04/03 07:21:27;;;;;;;11.43;10.27;;;;;;;1.76;86.24;95442.81;4342928;32;20190;-64
2022/04/03 07:23:52;;;;;;;12.23;11.12;;;;;;;1.69;84.60;95453.41;4359810;32;20219;-63
2022/04/03 07:26:31;;;;;;;12.50;11.20;;;;;;;1.70;84.56;95447.16;4345782;32;20186;-64
2022/04/03 07:28:57;;;;;;;11.63;10.43;;;;;;;1.45;85.73;95455.34;4358356;32;20184;-64
2022/04/03 07:31:31;;;;;;;11.13;10.13;;;;;;;1.53;84.92;95452.34;4346873;32;20193;-64
2022/04/03 07:33:56;;;;;;;11.10;10.10;;;;;;;1.47;86.28;95457.69;4357542;32;20185;-64
2022/04/03 07:36:22;;;;;;;11.20;10.30;;;;;;;1.57;85.62;95463.12;4349893;32;20212;-64
2022/04/03 07:38:47;;;;;;;11.50;10.50;;;;;;;1.53;85.64;95462.78;4352818;32;20254;-64
2022/04/03 07:41:30;;;;;;;11.03;9.93;;;;;;;1.55;85.50;95467.78;4363047;32;20197;-63
2022/04/03 07:43:56;;;;;;;10.45;9.43;;;;;;;1.80;84.88;95470.88;4359496;32;20238;-63
2022/04/03 07:46:37;;;;;;;9.67;8.97;;;;;;;1.90;84.61;95465.81;4372252;32;20193;-64
2022/04/03 07:49:04;;;;;;;9.63;8.67;;;;;;;1.90;82.24;95462.41;4360676;32;20209;-65
2022/04/03 07:51:30;;;;;;;9.75;8.82;;;;;;;2.00;82.02;95468.63;4360996;32;20289;-64
2022/04/03 07:53:55;;;;;;;9.30;8.50;;;;;;;2.23;81.53;95472.94;4361140;32;20192;-63
2022/04/03 07:56:21;;;;;;;9.50;8.73;;;;;;;2.25;82.48;95473.50;4365039;32;20189;-64
2022/04/03 07:58:47;;;;;;;9.80;9.00;;;;;;;2.11;82.68;95479.25;4359475;32;20283;-64
2022/04/03 08:01:21;;;;;;;8.90;8.20;;;;;;;2.18;82.47;95479.88;4363981;32;20256;-64
2022/04/03 08:03:46;;;;;;;11.07;9.83;;;;;;;2.06;82.43;95478.16;4359335;32;20248;-64
2022/04/03 08:06:34;;;;;;;10.63;8.53;;;;;;;1.92;82.46;95487.28;4365669;32;20284;-65
2022/04/03 08:08:59;;;;;;;10.03;8.97;;;;;;;2.18;81.29;95480.69;4367466;32;20203;-64
2022/04/03 08:11:24;;;;;;;10.67;9.77;;;;;;;2.22;80.45;95487.03;4369698;32;20274;-63
2022/04/03 08:13:49;;;;;;;10.37;9.50;;;;;;;2.11;82.19;95492.31;4363066;32;20197;-64
2022/04/03 08:16:24;;;;;;;11.43;10.23;;;;;;;2.02;81.50;95499.78;4360693;32;20188;-64
2022/04/03 08:18:49;;;;;;;11.73;10.68;;;;;;;2.10;82.96;95495.97;4359453;32;20195;-64
2022/04/03 08:21:27;;;;;;;10.67;9.77;;;;;;;1.90;82.42;95494.56;4350559;32;20192;-65
2022/04/03 08:23:53;;;;;;;11.60;10.40;;;;;;;2.08;82.73;95502.22;4358796;32;20216;-63
2022/04/03 08:26:19;;;;;;;11.73;10.63;;;;;;;2.02;83.82;95505.00;4368738;32;20186;-64
2022/04/03 08:28:44;;;;;;;11.40;10.20;;;;;;;2.04;83.76;95501.12;4361039;32;20195;-64
2022/04/03 08:31:23;;;;;;;10.53;9.43;;;;;;;1.93;83.30;95503.78;4359217;32;20234;-64
2022/04/03 08:33:49;;;;;;;11.85;10.77;;;;;;;2.03;82.88;95504.78;4360631;32;20196;-64
2022/04/03 08:36:45;;;;;;;10.03;9.13;;;;;;;2.17;83.38;95507.88;4356350;32;20189;-65
2022/04/03 08:39:10;;;;;;;11.00;10.00;;;;;;;2.20;82.18;95509.22;4358617;32;20285;-64
2022/04/03 08:41:36;;;;;;;9.53;8.67;;;;;;;2.29;82.19;95513.03;4350583;32;20197;-59
2022/04/03 08:44:02;;;;;;;9.77;8.87;;;;;;;2.31;80.04;95509.16;4354112;32;20193;-59
2022/04/03 08:46:32;;;;;;;10.40;9.30;;;;;;;2.34;80.06;95515.75;4360755;32;20200;-64
2022/04/03 08:48:59;;;;;;;10.82;9.88;;;;;;;2.54;79.48;95515.28;4359973;32;20300;-64
2022/04/03 08:51:25;;;;;;;10.80;9.73;;;;;;;2.55;80.37;95511.63;4340830;32;20204;-64
2022/04/03 08:53:51;;;;;;;11.43;10.00;;;;;;;2.72;79.98;95507.97;4354133;32;20308;-64
2022/04/03 08:56:23;;;;;;;10.67;9.67;;;;;;;2.78;80.78;95515.91;4352470;32;20339;-64
2022/04/03 08:58:48;;;;;;;9.10;8.40;;;;;;;2.56;81.14;95515.84;4358488;32;20287;-63
2022/04/03 09:01:25;;;;;;;9.90;8.93;;;;;;;2.66;79.79;95516.00;4361951;32;20333;-63
2022/04/03 09:03:51;;;;;;;8.90;8.20;;;;;;;2.37;80.15;95515.28;4360900;32;20287;-63
2022/04/03 09:06:29;;;;;;;10.43;8.10;;;;;;;2.72;77.14;95526.31;4361477;32;20205;-64
2022/04/03 09:08:55;;;;;;;9.43;8.73;;;;;;;2.67;77.29;95518.41;4360295;32;20219;-63
2022/04/03 09:11:29;;;;;;;8.90;8.10;;;;;;;2.88;76.88;95522.13;4363311;32;20273;-64
2022/04/03 09:13:55;;;;;;;15.97;9.97;;;;;;;2.70;76.74;95519.75;4360020;32;20184;-64
2022/04/03 09:16:37;;;;;;;8.30;7.60;;;;;;;2.55;77.78;95525.53;4363280;32;20436;-64
2022/04/03 09:19:02;;;;;;;9.00;8.30;;;;;;;2.44;78.52;95529.00;4356698;32;20207;-65
2022/04/03 09:21:59;;;;;;;10.43;8.93;;;;;;;2.41;78.15;95534.72;4367630;32;20368;-64
2022/04/03 09:24:24;;;;;;;8.97;8.10;;;;;;;2.54;77.52;95537.03;4354849;32;20232;-65
2022/04/03 09:27:02;;;;;;;9.30;8.47;;;;;;;2.52;76.28;95538.28;4372467;32;20283;-64
2022/04/03 09:29:27;;;;;;;9.30;8.43;;;;;;;2.59;76.31;95534.50;4362792;32;20235;-65
2022/04/03 09:31:59;;;;;;;9.47;8.47;;;;;;;2.67;77.35;95536.72;4362880;32;20280;-64
2022/04/03 09:34:26;;;;;;;9.10;8.27;;;;;;;2.93;76.59;95539.72;4362965;32;20189;-64
2022/04/03 09:37:05;;;;;;;8.23;7.63;;;;;;;3.00;75.51;95538.53;4376332;32;20280;-64
2022/04/03 09:39:31;;;;;;;8.77;8.13;;;;;;;2.85;74.50;95542.75;4346059;32;20292;-64
2022/04/03 09:42:02;;;;;;;9.90;9.10;;;;;;;2.71;77.15;95543.06;4358012;32;20277;-64
2022/04/03 09:44:29;;;;;;;8.43;7.83;;;;;;;2.72;75.49;95544.63;4360370;32;20327;-65
2022/04/03 09:47:12;;;;;;;8.30;7.63;;;;;;;2.96;75.26;95540.03;4359747;32;20300;-64
2022/04/03 09:49:38;;;;;;;8.77;8.10;;;;;;;2.88;75.00;95540.44;4354249;32;20314;-64
2022/04/03 09:52:04;;;;;;;7.60;7.10;;;;;;;3.29;75.63;95544.44;4362920;32;20319;-64
2022/04/03 09:54:29;;;;;;;6.93;6.23;;;;;;;3.41;73.96;95547.75;4361359;32;20192;-64
2022/04/03 09:56:55;;;;;;;7.30;6.67;;;;;;;3.53;71.23;95544.22;4360917;32;20266;-64
2022/04/03 09:59:21;;;;;;;7.27;6.73;;;;;;;3.41;73.11;95547.75;4356543;32;20189;-64
2022/04/03 10:01:55;;;;;;;8.57;7.40;;;;;;;3.40;71.99;95548.78;4349920;32;20304;-64
2022/04/03 10:04:22;;;;;;;6.27;5.87;;;;;;;3.68;72.68;95541.78;4348105;32;20207;-64
2022/04/03 10:06:48;;;;;;;6.73;6.23;;;;;;;3.61;72.54;95551.66;4365579;32;20285;-64
2022/04/03 10:09:15;;;;;;;7.33;6.83;;;;;;;3.35;72.54;95548.69;4357250;32;20320;-63
2022/04/03 10:11:41;;;;;;;7.43;6.83;;;;;;;3.34;74.00;95548.94;4365794;32;20254;-64
2022/04/03 10:14:08;;;;;;;8.23;7.47;;;;;;;3.61;74.32;95546.41;4348690;32;20285;-64
2022/04/03 10:16:33;;;;;;;11.57;10.47;;;;;;;3.43;74.77;95537.81;4361175;32;20288;-64
2022/04/03 10:18:59;;;;;;;6.73;6.33;;;;;;;3.28;74.69;95540.25;4362156;32;20369;-64
2022/04/03 10:21:40;;;;;;;7.83;7.10;;;;;;;3.25;74.85;95545.97;4354937;32;20240;-63
2022/04/03 10:24:14;;;;;;;8.10;7.40;;;;;;;3.39;76.48;95547.19;4362273;32;20197;-64
2022/04/03 10:26:41;;;;;;;6.87;6.47;;;;;;;3.32;74.18;95548.41;4364873;32;20343;-64
2022/04/03 10:29:09;;;;;;;6.20;5.60;;;;;;;3.36;73.19;95542.44;4349039;32;20273;-63
2022/04/03 10:31:39;;;;;;;6.17;5.77;;;;;;;3.16;72.38;95546.59;4357604;32;20316;-63
2022/04/03 10:34:05;;;;;;;5.70;5.40;;;;;;;3.08;71.49;95539.94;4361906;32;20282;-63
2022/04/03 10:36:30;;;;;;;5.73;5.33;;;;;;;3.17;70.94;95538.50;4368598;32;20324;-63
2022/04/03 10:39:05;;;;;;;6.50;6.10;;;;;;;3.50;71.21;95544.72;4341107;32;20282;-63
2022/04/03 10:41:43;;;;;;;6.03;5.63;;;;;;;3.54;72.65;95543.97;4360465;32;20256;-63
2022/04/03 10:44:18;;;;;;;5.57;5.07;;;;;;;3.46;69.28;95549.66;4347179;32;20388;-63
2022/04/03 10:47:02;;;;;;;6.10;5.60;;;;;;;3.30;69.96;95546.03;4358898;32;20295;-63
2022/04/03 10:49:36;;;;;;;6.07;5.60;;;;;;;3.39;70.41;95541.94;4362433;32;20315;-64
2022/04/03 10:52:07;;;;;;;6.00;5.53;;;;;;;3.54;69.88;95540.53;4373255;32;20313;-64
2022/04/03 10:54:52;;;;;;;6.57;6.03;;;;;;;3.47;72.69;95537.31;4355749;32;20281;-63
2022/04/03 10:57:40;;;;;;;5.00;4.63;;;;;;;3.59;71.69;95540.63;4353405;32;20276;-63
2022/04/03 11:00:12;;;;;;;5.93;5.47;;;;;;;3.70;69.64;95547.59;4333501;32;20278;-64
2022/04/03 11:02:38;;;;;;;6.33;5.83;;;;;;;3.62;68.69;95545.38;4335493;32;20289;-63
2022/04/03 11:05:21;;;;;;;5.93;5.53;;;;;;;3.44;69.00;95547.25;4361694;32;20292;-63
2022/04/03 11:07:50;;;;;;;7.07;5.50;;;;;;;3.48;71.18;95544.16;4338405;32;20286;-63
2022/04/03 11:10:54;;;;;;;5.87;5.33;;;;;;;3.25;71.76;95550.41;4350351;32;20299;-63
2022/04/03 11:13:34;;;;;;;5.83;5.30;;;;;;;3.34;70.81;95546.31;4362548;32;20304;-63
2022/04/03 11:16:00;;;;;;;5.53;5.20;;;;;;;3.29;70.08;95549.69;4340831;32;20280;-63
2022/04/03 11:18:41;;;;;;;6.27;5.70;;;;;;;3.24;68.49;95546.19;4360969;32;20286;-63
2022/04/03 11:21:31;;;;;;;5.97;5.37;;;;;;;3.26;67.31;95546.75;4353223;32;20314;-63
2022/04/03 11:24:10;;;;;;;5.93;5.43;;;;;;;3.74;66.17;95543.44;4338806;32;20281;-63
2022/04/03 11:26:37;;;;;;;6.10;5.60;;;;;;;3.44;68.78;95542.03;4364735;32;20297;-63
2022/04/03 11:29:04;;;;;;;6.10;5.60;;;;;;;3.54;67.75;95540.53;4348034;32;20285;-64
2022/04/03 11:31:30;;;;;;;5.40;5.10;;;;;;;3.62;68.32;95542.75;4365530;32;20311;-63
2022/04/03 11:33:57;;;;;;;5.23;4.93;;;;;;;3.53;69.22;95537.16;4359817;32;20347;-63
2022/04/03 11:36:27;;;;;;;7.43;6.00;;;;;;;3.56;68.53;95549.75;4362371;32;20281;-61
2022/04/03 11:38:53;;;;;;;5.63;5.23;;;;;;;3.42;69.25;95544.09;4359326;32;20304;-63
2022/04/03 11:41:34;;;;;;;6.10;5.70;;;;;;;3.38;70.08;95536.94;4367536;32;20333;-63
2022/04/03 11:44:02;;;;;;;5.23;4.83;;;;;;;3.21;70.22;95542.22;4350935;32;20282;-63